地図

経路データ

SID SEASON NUMBER BASIN SUBBASIN NAME ISO_TIME NATURE LAT LON WMO_WIND WMO_PRES WMO_AGENCY TRACK_TYPE DIST2LAND LANDFALL IFLAG USA_AGENCY USA_ATCF_ID USA_LAT USA_LON USA_RECORD USA_STATUS USA_WIND USA_PRES USA_SSHS USA_R34_NE USA_R34_SE USA_R34_SW USA_R34_NW USA_R50_NE USA_R50_SE USA_R50_SW USA_R50_NW USA_R64_NE USA_R64_SE USA_R64_SW USA_R64_NW USA_POCI USA_ROCI USA_RMW USA_EYE TOKYO_LAT TOKYO_LON TOKYO_GRADE TOKYO_WIND TOKYO_PRES TOKYO_R50_DIR TOKYO_R50_LONG TOKYO_R50_SHORT TOKYO_R30_DIR TOKYO_R30_LONG TOKYO_R30_SHORT TOKYO_LAND CMA_LAT CMA_LON CMA_CAT CMA_WIND CMA_PRES HKO_LAT HKO_LON HKO_CAT HKO_WIND HKO_PRES NEWDELHI_LAT NEWDELHI_LON NEWDELHI_GRADE NEWDELHI_WIND NEWDELHI_PRES NEWDELHI_CI NEWDELHI_DP NEWDELHI_POCI REUNION_LAT REUNION_LON REUNION_TYPE REUNION_WIND REUNION_PRES REUNION_TNUM REUNION_CI REUNION_RMW REUNION_R34_NE REUNION_R34_SE REUNION_R34_SW REUNION_R34_NW REUNION_R50_NE REUNION_R50_SE REUNION_R50_SW REUNION_R50_NW REUNION_R64_NE REUNION_R64_SE REUNION_R64_SW REUNION_R64_NW BOM_LAT BOM_LON BOM_TYPE BOM_WIND BOM_PRES BOM_TNUM BOM_CI BOM_RMW BOM_R34_NE BOM_R34_SE BOM_R34_SW BOM_R34_NW BOM_R50_NE BOM_R50_SE BOM_R50_SW BOM_R50_NW BOM_R64_NE BOM_R64_SE BOM_R64_SW BOM_R64_NW BOM_ROCI BOM_POCI BOM_EYE BOM_POS_METHOD BOM_PRES_METHOD NADI_LAT NADI_LON NADI_CAT NADI_WIND NADI_PRES WELLINGTON_LAT WELLINGTON_LON WELLINGTON_WIND WELLINGTON_PRES DS824_LAT DS824_LON DS824_STAGE DS824_WIND DS824_PRES TD9636_LAT TD9636_LON TD9636_STAGE TD9636_WIND TD9636_PRES TD9635_LAT TD9635_LON TD9635_WIND TD9635_PRES TD9635_ROCI NEUMANN_LAT NEUMANN_LON NEUMANN_CLASS NEUMANN_WIND NEUMANN_PRES MLC_LAT MLC_LON MLC_CLASS MLC_WIND MLC_PRES USA_GUST BOM_GUST BOM_GUST_PER REUNION_GUST REUNION_GUST_PER USA_SEAHGT USA_SEARAD_NE USA_SEARAD_SE USA_SEARAD_SW USA_SEARAD_NW STORM_SPEED STORM_DIR
1972291N12331 1972 111 NA NA NOT_NAMED 1972-10-16 12:00:00 TS 12.0000 -29.0000 20 hurdat_atl main 1280 1280 O_____________ hurdat_atl AL181972 12.0000 -29.0000 TD 20 -1 10 270
1972291N12331 1972 111 NA NA NOT_NAMED 1972-10-16 15:00:00 TS 12.0002 -29.5000 main 1333 1333 P_____________ AL181972 12.0002 -29.5000 TD 22 -1 10 270
1972291N12331 1972 111 NA NA NOT_NAMED 1972-10-16 18:00:00 TS 12.0000 -30.0000 25 hurdat_atl main 1386 1386 O_____________ hurdat_atl AL181972 12.0000 -30.0000 TD 25 -1 10 270
1972291N12331 1972 111 NA NA NOT_NAMED 1972-10-16 21:00:00 TS 11.9999 -30.5000 main 1439 1439 P_____________ AL181972 11.9999 -30.5000 TD 25 -1 10 270
1972291N12331 1972 111 NA NA NOT_NAMED 1972-10-17 00:00:00 TS 12.0000 -31.0000 25 hurdat_atl main 1492 1492 O_____________ hurdat_atl AL181972 12.0000 -31.0000 TD 25 -1 10 270
1972291N12331 1972 111 NA NA NOT_NAMED 1972-10-17 03:00:00 TS 11.9999 -31.5000 main 1545 1545 P_____________ AL181972 11.9999 -31.5000 TD 25 -1 10 270
1972291N12331 1972 111 NA NA NOT_NAMED 1972-10-17 06:00:00 TS 12.0000 -32.0000 25 hurdat_atl main 1598 1598 O_____________ hurdat_atl AL181972 12.0000 -32.0000 TD 25 -1 10 269
1972291N12331 1972 111 NA NA NOT_NAMED 1972-10-17 09:00:00 TS 11.9850 -32.5151 main 1651 1651 P_____________ AL181972 11.9850 -32.5151 TD 25 -1 10 270
1972291N12331 1972 111 NA NA NOT_NAMED 1972-10-17 12:00:00 TS 12.0000 -33.0000 25 hurdat_atl main 1704 1704 O_____________ hurdat_atl AL181972 12.0000 -33.0000 TD 25 -1 9 276
1972291N12331 1972 111 NA NA NOT_NAMED 1972-10-17 15:00:00 TS 12.0774 -33.4225 main 1744 1744 P_____________ AL181972 12.0774 -33.4225 TD 25 -1 8 284
1972291N12331 1972 111 NA NA NOT_NAMED 1972-10-17 18:00:00 TS 12.2000 -33.8000 25 hurdat_atl main 1785 1785 O_____________ hurdat_atl AL181972 12.2000 -33.8000 TD 25 -1 8 291
1972291N12331 1972 111 NA NA NOT_NAMED 1972-10-17 21:00:00 TS 12.3499 -34.1575 main 1812 1812 P_____________ AL181972 12.3499 -34.1575 TD 25 -1 7 294
1972291N12331 1972 111 NA NA NOT_NAMED 1972-10-18 00:00:00 TS 12.5000 -34.5000 25 hurdat_atl main 1822 1815 O_____________ hurdat_atl AL181972 12.5000 -34.5000 TD 25 -1 7 290
1972291N12331 1972 111 NA NA NOT_NAMED 1972-10-18 03:00:00 TS 12.5999 -34.8426 main 1822 1815 P_____________ AL181972 12.5999 -34.8426 TD 25 -1 7 286
1972291N12331 1972 111 NA NA NOT_NAMED 1972-10-18 06:00:00 TS 12.7000 -35.2000 25 hurdat_atl main 1820 1817 O_____________ hurdat_atl AL181972 12.7000 -35.2000 TD 25 -1 8 289
1972291N12331 1972 111 NA NA NOT_NAMED 1972-10-18 09:00:00 TS 12.8500 -35.6000 main 1830 1824 P_____________ AL181972 12.8500 -35.6000 TD 25 -1 8 291
1972291N12331 1972 111 NA NA NOT_NAMED 1972-10-18 12:00:00 TS 13.0000 -36.0000 25 hurdat_atl main 1830 1827 O_____________ hurdat_atl AL181972 13.0000 -36.0000 TD 25 -1 8 290
1972291N12331 1972 111 NA NA NOT_NAMED 1972-10-18 15:00:00 TS 13.1149 -36.3500 main 1831 1829 P_____________ AL181972 13.1149 -36.3500 TD 25 -1 7 286
1972291N12331 1972 111 NA NA NOT_NAMED 1972-10-18 18:00:00 TS 13.2000 -36.7000 25 hurdat_atl main 1836 1830 O_____________ hurdat_atl AL181972 13.2000 -36.7000 TD 25 -1 7 281
1972291N12331 1972 111 NA NA NOT_NAMED 1972-10-18 21:00:00 TS 13.2575 -37.1000 main 1839 1820 P_____________ AL181972 13.2575 -37.1000 TD 25 -1 8 277
1972291N12331 1972 111 NA NA NOT_NAMED 1972-10-19 00:00:00 TS 13.3000 -37.5000 25 hurdat_atl main 1820 1793 O_____________ hurdat_atl AL181972 13.3000 -37.5000 TD 25 -1 7 277
1972291N12331 1972 111 NA NA NOT_NAMED 1972-10-19 03:00:00 TS 13.3499 -37.8500 main 1784 1763 P_____________ AL181972 13.3499 -37.8500 TD 25 -1 7 278
1972291N12331 1972 111 NA NA NOT_NAMED 1972-10-19 06:00:00 TS 13.4000 -38.2000 25 hurdat_atl main 1763 1718 O_____________ hurdat_atl AL181972 13.4000 -38.2000 TD 25 -1 8 277
1972291N12331 1972 111 NA NA NOT_NAMED 1972-10-19 09:00:00 TS 13.4502 -38.6750 main 1725 1699 P_____________ AL181972 13.4502 -38.6750 TD 25 -1 8 277
1972291N12331 1972 111 NA NA NOT_NAMED 1972-10-19 12:00:00 TS 13.5000 -39.0000 25 hurdat_atl main 1699 1699 O_____________ hurdat_atl AL181972 13.5000 -39.0000 TD 25 -1 3 291
1972291N12331 1972 111 NA NA NOT_NAMED 1972-10-19 15:00:00 TS 13.5499 -38.9400 main 1707 1707 P_____________ AL181972 13.5499 -38.9400 TD 25 -1 3 71
1972291N12331 1972 111 NA NA NOT_NAMED 1972-10-19 18:00:00 TS 13.6000 -38.7000 25 hurdat_atl main 1731 1731 O_____________ hurdat_atl AL181972 13.6000 -38.7000 TD 25 -1 4 77
1972291N12331 1972 111 NA NA NOT_NAMED 1972-10-19 21:00:00 TS 13.6500 -38.5075 main 1755 1755 P_____________ AL181972 13.6500 -38.5075 TD 22 -1 4 76
1972291N12331 1972 111 NA NA NOT_NAMED 1972-10-20 00:00:00 TS 13.7000 -38.3000 20 hurdat_atl main 1773 1773 O_____________ hurdat_atl AL181972 13.7000 -38.3000 TD 20 -1 4 77
1972291N12331 1972 111 NA NA NOT_NAMED 1972-10-20 03:00:00 TS 13.7425 -38.1000 main 1791 1791 P_____________ AL181972 13.7425 -38.1000 TD 20 -1 4 76
1972291N12331 1972 111 NA NA NOT_NAMED 1972-10-20 06:00:00 TS 13.8000 -37.9000 20 hurdat_atl main 1815 1815 O_____________ hurdat_atl AL181972 13.8000 -37.9000 TD 20 -1 4 69
1972291N12331 1972 111 NA NA NOT_NAMED 1972-10-20 09:00:00 TS 13.8900 -37.7001 main 1839 1839 P_____________ AL181972 13.8900 -37.7001 TD 20 -1 4 63
1972291N12331 1972 111 NA NA NOT_NAMED 1972-10-20 12:00:00 TS 14.0000 -37.5000 20 hurdat_atl main 1863 O_____________ hurdat_atl AL181972 14.0000 -37.5000 TD 20 -1 4 61

IBTrACS Databaseについて

本データベースは、米国NOAAが公開する1842年以降の世界の熱帯低気圧のベストトラックデータアーカイブInternational Best Track Archive for Climate Stewardship (IBTrACS)を、ウェブで閲覧しやすい形式に変換したものです。

最終更新日:2021-11-26